createdAt,value
2023-03-22T00:01:50.276Z,0.60
2023-03-22T00:04:19.847Z,0.50
2023-03-22T00:06:49.654Z,0.77
2023-03-22T00:09:18.536Z,0.60
2023-03-22T00:11:51.129Z,0.50
2023-03-22T00:14:22.201Z,0.60
2023-03-22T00:16:50.626Z,0.52
2023-03-22T00:19:20.121Z,0.50
2023-03-22T00:21:52.790Z,0.50
2023-03-22T00:24:22.065Z,0.50
2023-03-22T00:26:50.636Z,0.70
2023-03-22T00:29:20.053Z,0.60
2023-03-22T00:31:49.545Z,0.80
2023-03-22T00:34:18.165Z,1.00
2023-03-22T00:36:46.774Z,0.60
2023-03-22T00:39:16.727Z,0.57
2023-03-22T00:41:45.450Z,0.75
2023-03-22T00:44:14.007Z,1.10
2023-03-22T00:46:42.560Z,0.90
2023-03-22T00:49:10.866Z,1.00
2023-03-22T00:51:40.244Z,1.30
2023-03-22T00:54:09.079Z,1.10
2023-03-22T00:56:40.031Z,0.88
2023-03-22T00:59:10.584Z,0.75
2023-03-22T01:01:39.419Z,1.10
2023-03-22T01:04:10.194Z,0.77
2023-03-22T01:06:38.955Z,1.55
2023-03-22T01:09:07.608Z,1.48
2023-03-22T01:11:38.590Z,1.35
2023-03-22T01:14:10.063Z,2.03
2023-03-22T01:16:38.860Z,1.30
2023-03-22T01:19:07.908Z,1.58
2023-03-22T01:21:36.532Z,2.15
2023-03-22T01:24:05.510Z,2.58
2023-03-22T01:26:34.139Z,1.90
2023-03-22T01:29:03.962Z,2.78
2023-03-22T01:31:32.830Z,2.72
2023-03-22T01:34:01.311Z,2.70
2023-03-22T01:36:30.879Z,2.70
2023-03-22T01:39:01.470Z,2.65
2023-03-22T01:41:35.319Z,2.92
2023-03-22T01:44:14.835Z,2.97
2023-03-22T01:46:44.758Z,3.38
2023-03-22T01:49:16.717Z,3.05
2023-03-22T01:51:48.434Z,2.60
2023-03-22T01:54:23.241Z,3.20
2023-03-22T01:56:52.670Z,3.33
2023-03-22T01:59:22.590Z,2.90
2023-03-22T02:01:52.134Z,2.80
2023-03-22T02:04:23.818Z,3.25
2023-03-22T02:06:58.172Z,2.90
2023-03-22T02:09:26.597Z,2.90
2023-03-22T02:12:09.988Z,3.20
2023-03-22T02:14:57.852Z,2.85
2023-03-22T02:17:40.143Z,3.28
2023-03-22T02:20:53.383Z,3.63
2023-03-22T02:23:54.433Z,3.40
2023-03-22T02:26:47.211Z,3.35
2023-03-22T02:29:26.900Z,3.58
2023-03-22T02:32:34.864Z,2.92
2023-03-22T02:35:48.077Z,3.55
2023-03-22T02:38:38.264Z,3.75
2023-03-22T02:41:16.446Z,3.13
2023-03-22T02:44:00.822Z,3.35
2023-03-22T02:46:37.014Z,3.15
2023-03-22T02:49:19.373Z,2.80
2023-03-22T02:51:54.022Z,3.85
2023-03-22T02:54:26.458Z,2.58
2023-03-22T02:57:02.408Z,2.17
2023-03-22T02:59:34.508Z,2.83
2023-03-22T03:02:05.922Z,2.40
2023-03-22T03:04:39.510Z,3.53
2023-03-22T03:07:11.529Z,4.10
2023-03-22T03:09:43.781Z,3.88
2023-03-22T03:12:20.349Z,2.88
2023-03-22T03:14:50.282Z,3.75
2023-03-22T03:17:40.276Z,3.42
2023-03-22T03:20:24.866Z,3.13
2023-03-22T03:23:08.622Z,3.17
2023-03-22T03:25:43.834Z,3.08
2023-03-22T03:28:30.490Z,3.88
2023-03-22T03:31:05.166Z,3.83
2023-03-22T03:33:37.755Z,3.55
2023-03-22T03:36:13.370Z,2.80
2023-03-22T03:38:47.087Z,3.67
2023-03-22T03:41:18.021Z,3.55
2023-03-22T03:43:49.751Z,2.70
2023-03-22T03:46:18.331Z,3.10
2023-03-22T03:48:50.143Z,2.58
2023-03-22T03:51:19.300Z,2.75
2023-03-22T03:53:47.964Z,2.50
2023-03-22T03:56:16.297Z,3.28
2023-03-22T03:58:44.860Z,3.08
2023-03-22T04:01:14.567Z,2.75
2023-03-22T04:03:42.974Z,2.60
2023-03-22T04:06:11.681Z,3.30
2023-03-22T04:08:41.830Z,2.97
2023-03-22T04:11:10.144Z,2.63
2023-03-22T04:13:38.813Z,3.05
2023-03-22T04:16:08.340Z,2.78
2023-03-22T04:18:43.119Z,3.50
2023-03-22T04:21:13.583Z,2.40
2023-03-22T04:23:46.966Z,2.80
2023-03-22T04:26:15.457Z,3.38
2023-03-22T04:28:43.966Z,3.13
2023-03-22T04:31:13.604Z,2.78
2023-03-22T04:33:47.574Z,3.25
2023-03-22T04:36:17.691Z,2.70
2023-03-22T04:38:53.002Z,3.20
2023-03-22T04:41:21.377Z,2.83
2023-03-22T04:43:51.278Z,2.75
2023-03-22T04:46:21.432Z,3.45
2023-03-22T04:48:51.667Z,3.15
2023-03-22T04:51:20.558Z,3.05
2023-03-22T04:53:49.371Z,3.65
2023-03-22T04:56:17.935Z,3.53
2023-03-22T04:58:48.247Z,2.92
2023-03-22T05:01:19.391Z,2.58
2023-03-22T05:03:48.334Z,3.10
2023-03-22T05:06:18.148Z,3.22
2023-03-22T05:08:46.480Z,4.10
2023-03-22T05:11:19.748Z,3.17
2023-03-22T05:13:48.184Z,2.88
2023-03-22T05:16:16.951Z,3.50
2023-03-22T05:18:46.170Z,3.05
2023-03-22T05:21:22.188Z,2.85
2023-03-22T05:23:52.083Z,2.65
2023-03-22T05:26:24.469Z,2.47
2023-03-22T05:28:53.395Z,2.42
2023-03-22T05:31:24.480Z,2.88
2023-03-22T05:33:54.227Z,2.25
2023-03-22T05:36:24.654Z,3.13
2023-03-22T05:38:53.249Z,2.78
2023-03-22T05:41:21.754Z,2.90
2023-03-22T05:43:51.158Z,3.25
2023-03-22T05:46:20.794Z,3.28
2023-03-22T05:48:55.470Z,3.17
2023-03-22T05:51:27.740Z,3.28
2023-03-22T05:53:56.689Z,3.70
2023-03-22T05:56:27.389Z,4.53
2023-03-22T05:58:55.974Z,4.28
2023-03-22T06:01:25.569Z,3.53
2023-03-22T06:03:54.079Z,3.97
2023-03-22T06:06:24.506Z,3.85
2023-03-22T06:09:07.033Z,3.80
2023-03-22T06:11:42.905Z,3.22
2023-03-22T06:14:13.643Z,3.70
2023-03-22T06:16:42.382Z,3.42
2023-03-22T06:19:11.024Z,3.40
2023-03-22T06:21:39.543Z,3.63
2023-03-22T06:24:09.870Z,3.47
2023-03-22T06:26:39.305Z,3.80
2023-03-22T06:29:07.962Z,3.53
2023-03-22T06:31:37.599Z,3.55
2023-03-22T06:34:15.879Z,3.53
2023-03-22T06:36:44.764Z,3.33
2023-03-22T06:39:15.304Z,3.28
2023-03-22T06:41:44.265Z,4.30
2023-03-22T06:44:12.965Z,3.63
2023-03-22T06:46:42.032Z,3.80
2023-03-22T06:49:10.674Z,3.50
2023-03-22T06:51:40.184Z,3.55
2023-03-22T06:54:08.625Z,3.50
2023-03-22T06:56:39.839Z,3.50
2023-03-22T06:59:09.351Z,4.00
2023-03-22T07:01:37.845Z,3.83
2023-03-22T07:04:06.681Z,4.10
2023-03-22T07:06:36.478Z,3.72
2023-03-22T07:09:06.547Z,3.78
2023-03-22T07:11:35.949Z,3.53
2023-03-22T07:14:07.140Z,4.10
2023-03-22T07:16:35.615Z,4.28
2023-03-22T07:19:05.110Z,3.88
2023-03-22T07:21:35.791Z,4.03
2023-03-22T07:24:04.877Z,4.00
2023-03-22T07:26:33.582Z,4.13
2023-03-22T07:29:02.065Z,3.60
2023-03-22T07:31:35.782Z,3.63
2023-03-22T07:34:05.268Z,3.25
2023-03-22T07:36:35.009Z,4.10
2023-03-22T07:39:03.587Z,4.10
2023-03-22T07:41:32.268Z,3.90
2023-03-22T07:44:15.221Z,4.15
2023-03-22T07:46:47.255Z,3.63
2023-03-22T07:49:16.163Z,4.80
2023-03-22T07:51:44.761Z,4.25
2023-03-22T07:54:30.515Z,4.10
2023-03-22T07:57:01.474Z,4.22
2023-03-22T07:59:31.523Z,4.28
2023-03-22T08:02:01.587Z,3.75
2023-03-22T08:04:30.915Z,4.60
2023-03-22T08:07:00.369Z,3.33
2023-03-22T08:09:29.050Z,3.13
2023-03-22T08:11:58.002Z,4.88
2023-03-22T08:14:35.864Z,6.38
2023-03-22T08:17:08.587Z,3.78
2023-03-22T08:19:37.563Z,3.83
2023-03-22T08:22:07.096Z,3.47
2023-03-22T08:24:36.283Z,4.22
2023-03-22T08:27:04.777Z,3.83
2023-03-22T08:29:33.294Z,3.85
2023-03-22T08:32:03.002Z,3.83
2023-03-22T08:34:33.442Z,2.60
2023-03-22T08:37:02.153Z,4.68
2023-03-22T08:39:30.747Z,3.63
2023-03-22T08:41:59.909Z,3.70
2023-03-22T08:44:29.284Z,3.35
2023-03-22T08:46:58.841Z,3.28
2023-03-22T08:49:27.618Z,3.72
2023-03-22T08:51:59.028Z,3.92
2023-03-22T08:54:33.760Z,3.47
2023-03-22T08:57:03.412Z,3.88
2023-03-22T08:59:32.033Z,3.80
2023-03-22T09:02:01.044Z,3.90
2023-03-22T09:04:30.078Z,3.90
2023-03-22T09:06:59.895Z,4.07
2023-03-22T09:09:28.864Z,3.05
2023-03-22T09:11:58.280Z,4.30
2023-03-22T09:14:26.897Z,4.82
2023-03-22T09:16:55.560Z,4.80
2023-03-22T09:19:24.344Z,6.50
2023-03-22T09:21:53.089Z,5.07
2023-03-22T09:24:23.370Z,3.95
2023-03-22T09:26:52.143Z,5.75
2023-03-22T09:29:21.109Z,3.65
2023-03-22T09:31:50.711Z,4.30
2023-03-22T09:34:19.303Z,4.57
2023-03-22T09:36:47.849Z,5.07
2023-03-22T09:39:16.980Z,3.83
2023-03-22T09:41:51.954Z,5.10
2023-03-22T09:44:26.501Z,3.70
2023-03-22T09:46:57.462Z,4.80
2023-03-22T09:49:30.285Z,5.32
2023-03-22T09:52:00.276Z,3.92
2023-03-22T09:54:34.625Z,4.78
2023-03-22T09:57:10.072Z,3.50
2023-03-22T09:59:46.419Z,4.40
2023-03-22T10:02:34.521Z,4.30
2023-03-22T10:05:13.600Z,4.00
2023-03-22T10:08:02.449Z,3.67
2023-03-22T10:10:32.440Z,4.15
2023-03-22T10:13:15.389Z,4.60
2023-03-22T10:15:46.612Z,3.53
2023-03-22T10:18:19.601Z,4.55
2023-03-22T10:20:58.754Z,4.13
2023-03-22T10:23:32.428Z,4.85
2023-03-22T10:26:03.155Z,4.32
2023-03-22T10:28:40.212Z,4.18
2023-03-22T10:31:16.060Z,4.07
2023-03-22T10:33:53.620Z,4.00
2023-03-22T10:36:27.855Z,3.95
2023-03-22T10:39:00.231Z,4.32
2023-03-22T10:41:30.993Z,3.15
2023-03-22T10:44:04.074Z,4.20
2023-03-22T10:46:38.608Z,4.35
2023-03-22T10:49:09.425Z,4.55
2023-03-22T10:51:42.686Z,3.60
2023-03-22T10:54:15.200Z,3.78
2023-03-22T10:56:45.100Z,4.13
2023-03-22T10:59:49.777Z,3.58
2023-03-22T11:02:21.114Z,3.70
2023-03-22T11:04:51.391Z,4.57
2023-03-22T11:07:34.183Z,4.57
2023-03-22T11:10:27.660Z,4.20
2023-03-22T11:13:12.239Z,4.07
2023-03-22T11:15:51.356Z,4.05
2023-03-22T11:18:23.230Z,4.18
2023-03-22T11:20:59.252Z,3.70
2023-03-22T11:23:30.066Z,3.88
2023-03-22T11:26:06.791Z,3.60
2023-03-22T11:28:39.237Z,3.72
2023-03-22T11:31:11.998Z,3.50
2023-03-22T11:33:55.751Z,4.63
2023-03-22T11:36:24.537Z,4.00
2023-03-22T11:38:58.994Z,3.30
2023-03-22T11:41:29.629Z,2.60
2023-03-22T11:44:02.565Z,2.45
2023-03-22T11:46:34.369Z,3.17
2023-03-22T11:49:07.741Z,3.30
2023-03-22T11:51:39.257Z,2.38
2023-03-22T11:54:10.513Z,2.42
2023-03-22T11:56:43.054Z,2.35
2023-03-22T11:59:17.362Z,2.33
2023-03-22T12:01:52.882Z,1.80
2023-03-22T12:04:29.091Z,1.58
2023-03-22T12:07:03.941Z,1.83
2023-03-22T12:09:40.935Z,2.40
2023-03-22T12:12:16.792Z,1.90
2023-03-22T12:14:53.355Z,1.90
2023-03-22T12:17:31.612Z,1.60
2023-03-22T12:20:08.894Z,1.92
2023-03-22T12:22:42.509Z,1.60
2023-03-22T12:25:17.417Z,1.40
2023-03-22T12:27:49.819Z,1.63
2023-03-22T12:30:23.506Z,2.10
2023-03-22T12:33:01.960Z,1.77
2023-03-22T12:35:34.458Z,1.70
2023-03-22T12:38:12.484Z,1.55
2023-03-22T12:40:44.517Z,1.65
2023-03-22T12:43:18.597Z,1.52
2023-03-22T12:45:53.806Z,1.38
2023-03-22T12:48:34.719Z,2.13
2023-03-22T12:51:07.116Z,1.05
2023-03-22T12:53:42.614Z,1.90
2023-03-22T12:56:14.564Z,1.50
2023-03-22T12:58:48.071Z,2.10
2023-03-22T13:01:30.391Z,1.50
2023-03-22T13:04:00.621Z,1.95
2023-03-22T13:06:36.996Z,1.98
2023-03-22T13:09:17.998Z,1.67
2023-03-22T13:11:49.103Z,1.85
2023-03-22T13:14:59.307Z,1.20
2023-03-22T13:17:44.822Z,1.50
2023-03-22T13:20:34.336Z,1.50
2023-03-22T13:23:11.329Z,1.45
2023-03-22T13:26:00.570Z,1.73
2023-03-22T13:28:31.257Z,1.33
2023-03-22T13:31:01.819Z,1.20
2023-03-22T13:33:33.204Z,1.65
2023-03-22T13:36:09.764Z,1.30
2023-03-22T13:38:43.861Z,1.40
2023-03-22T13:41:22.975Z,1.20
2023-03-22T13:43:56.727Z,1.40
2023-03-22T13:46:47.492Z,1.30
2023-03-22T13:49:49.543Z,1.40
2023-03-22T13:52:31.737Z,1.38
2023-03-22T13:55:03.228Z,1.60
2023-03-22T13:57:48.141Z,1.60
2023-03-22T14:00:37.097Z,1.40
2023-03-22T14:03:18.060Z,1.38
2023-03-22T14:05:48.552Z,1.25
2023-03-22T14:08:24.872Z,1.20
2023-03-22T14:10:59.709Z,1.90
2023-03-22T14:13:34.428Z,1.90
2023-03-22T14:16:09.154Z,1.65
2023-03-22T14:18:43.596Z,1.65
2023-03-22T14:21:19.703Z,1.60
